Terminal Aerodrome Forecast
Issued by NWS Cleveland, OH

Home | Current Version | Previous Version | Text Only | Print | Product List | Glossary On
Versions: 1 2 3 4 5 6 7 8 9 10 11 12 13 14 15 16 17
000
FTUS41 KCLE 191700
TAFERI
TAF
KERI 191720Z 1918/2018 04005KT P6SM SCT035
      TEMPO 1918/1920 BKN035
     FM192000 01008KT P6SM FEW040 SCT250
     FM200100 14005KT P6SM SCT250
     FM200600 18014G22KT P6SM SCT250
     FM201500 21015G25KT P6SM SCT040=

USA.gov is the U.S. government's official web portal to all federal, state and local government web resources and services.